createdAt,value
2022-09-11T00:04:13.446Z,39.30
2022-09-11T00:09:13.923Z,30.80
2022-09-11T00:14:14.231Z,33.13
2022-09-11T00:19:14.049Z,29.23
2022-09-11T00:24:14.206Z,48.10
2022-09-11T00:29:12.583Z,41.23
2022-09-11T00:34:10.831Z,26.27
2022-09-11T00:39:09.075Z,64.87
2022-09-11T00:44:29.813Z,31.93
2022-09-11T00:49:32.571Z,23.93
2022-09-11T00:54:33.420Z,42.63
2022-09-11T00:59:34.627Z,29.00
2022-09-11T01:04:33.529Z,31.20
2022-09-11T01:09:33.969Z,29.90
2022-09-11T01:14:44.774Z,29.47
2022-09-11T01:20:04.355Z,30.50
2022-09-11T01:25:15.624Z,40.43
2022-09-11T01:30:18.696Z,35.40
2022-09-11T01:35:25.376Z,35.03
2022-09-11T01:40:29.067Z,32.80
2022-09-11T01:45:31.263Z,26.90
2022-09-11T01:50:32.738Z,33.20
2022-09-11T01:55:35.842Z,28.87
2022-09-11T02:00:36.762Z,37.80
2022-09-11T02:05:42.154Z,38.53
2022-09-11T02:10:44.300Z,37.87
2022-09-11T02:15:48.772Z,28.30
2022-09-11T02:20:48.648Z,28.10
2022-09-11T02:25:48.165Z,30.97
2022-09-11T02:30:51.363Z,30.03
2022-09-11T02:35:53.557Z,30.43
2022-09-11T02:41:01.539Z,37.23
2022-09-11T02:46:30.998Z,45.27
2022-09-11T02:51:35.545Z,31.63
2022-09-11T02:56:42.391Z,24.20
2022-09-11T03:01:55.238Z,25.70
2022-09-11T03:06:59.644Z,34.53
2022-09-11T03:11:57.912Z,20.70
2022-09-11T03:16:57.516Z,20.83
2022-09-11T03:21:56.003Z,22.07
2022-09-11T03:26:54.205Z,32.80
2022-09-11T03:31:52.727Z,26.87
2022-09-11T03:36:52.535Z,21.13
2022-09-11T03:41:52.333Z,33.83
2022-09-11T03:46:51.227Z,20.33
2022-09-11T03:51:50.632Z,22.77
2022-09-11T03:56:52.654Z,26.70
2022-09-11T04:01:51.040Z,27.20
2022-09-11T04:06:49.531Z,27.73
2022-09-11T04:11:47.950Z,33.20
2022-09-11T04:16:54.558Z,36.17
2022-09-11T04:21:52.831Z,67.90
2022-09-11T04:26:55.264Z,29.90
2022-09-11T04:32:00.141Z,37.20
2022-09-11T04:37:03.167Z,39.17
2022-09-11T04:42:04.406Z,33.77
2022-09-11T04:47:05.330Z,34.63
2022-09-11T04:52:06.020Z,37.47
2022-09-11T04:57:05.810Z,35.13
2022-09-11T05:02:07.126Z,38.63
2022-09-11T05:07:09.536Z,25.00
2022-09-11T05:12:07.954Z,33.53
2022-09-11T05:17:09.380Z,35.07
2022-09-11T05:22:12.126Z,35.30
2022-09-11T05:27:15.982Z,25.53
2022-09-11T05:32:16.628Z,33.83
2022-09-11T05:37:15.300Z,24.23
2022-09-11T05:42:17.664Z,66.17
2022-09-11T05:47:22.085Z,24.50
2022-09-11T05:52:24.853Z,24.87
2022-09-11T05:57:24.027Z,33.83
2022-09-11T06:02:23.664Z,40.37
2022-09-11T06:07:26.833Z,24.23
2022-09-11T06:12:26.123Z,33.33
2022-09-11T06:17:25.832Z,30.97
2022-09-11T06:22:24.615Z,39.03
2022-09-11T06:27:25.115Z,33.80
2022-09-11T06:32:26.456Z,32.03
2022-09-11T06:37:25.658Z,17.60
2022-09-11T06:42:24.611Z,41.83
2022-09-11T06:47:23.129Z,23.77
2022-09-11T06:52:25.502Z,14.40
2022-09-11T06:57:41.714Z,15.53
2022-09-11T07:02:46.146Z,31.00
2022-09-11T07:07:48.321Z,17.00
2022-09-11T07:12:47.517Z,33.23
2022-09-11T07:17:45.697Z,21.13
2022-09-11T07:22:47.004Z,19.53
2022-09-11T07:27:47.684Z,25.53
2022-09-11T07:32:47.906Z,19.63
2022-09-11T07:37:50.716Z,46.13
2022-09-11T07:42:49.868Z,19.53
2022-09-11T07:47:48.034Z,11.30
2022-09-11T07:52:48.474Z,11.53
2022-09-11T07:57:47.217Z,19.23
2022-09-11T08:02:45.828Z,22.03
2022-09-11T08:07:44.280Z,10.20
2022-09-11T08:12:47.564Z,14.03
2022-09-11T08:17:45.786Z,7.87
2022-09-11T08:22:44.063Z,15.47
2022-09-11T08:27:42.281Z,9.93
2022-09-11T08:32:43.264Z,13.03
2022-09-11T08:37:41.485Z,19.97
2022-09-11T08:42:42.420Z,19.03
2022-09-11T08:47:46.645Z,7.90
2022-09-11T08:52:48.740Z,10.00
2022-09-11T08:57:58.785Z,10.73
2022-09-11T09:03:33.548Z,13.07
2022-09-11T09:08:50.147Z,15.93
2022-09-11T09:14:21.369Z,17.40
2022-09-11T09:19:27.458Z,14.90
2022-09-11T09:24:29.483Z,13.97
2022-09-11T09:29:37.013Z,21.93
2022-09-11T09:34:42.951Z,9.10
2022-09-11T09:39:44.622Z,29.20
2022-09-11T09:44:53.815Z,10.90
2022-09-11T09:49:53.348Z,31.07
2022-09-11T09:54:56.387Z,14.13
2022-09-11T10:00:01.517Z,20.57
2022-09-11T10:05:08.648Z,19.50
2022-09-11T10:10:21.346Z,10.77
2022-09-11T10:15:22.458Z,12.47
2022-09-11T10:20:31.388Z,10.03
2022-09-11T10:25:30.191Z,11.30
2022-09-11T10:30:33.858Z,21.43
2022-09-11T10:35:35.725Z,16.43
2022-09-11T10:40:34.231Z,7.80
2022-09-11T10:45:33.831Z,42.13
2022-09-11T10:50:34.350Z,9.20
2022-09-11T10:55:36.312Z,10.10
2022-09-11T11:00:35.861Z,25.10
2022-09-11T11:05:45.676Z,54.13
2022-09-11T11:11:02.312Z,6.33
2022-09-11T11:16:07.624Z,3.63
2022-09-11T11:21:20.516Z,3.57
2022-09-11T11:26:33.926Z,53.33
2022-09-11T11:31:44.436Z,11.33
2022-09-11T11:36:47.874Z,2.70
2022-09-11T11:41:51.593Z,3.77
2022-09-11T11:46:52.316Z,7.90
2022-09-11T11:51:57.172Z,10.20
2022-09-11T11:57:00.829Z,4.10
2022-09-11T12:02:03.439Z,7.13
2022-09-11T12:07:05.202Z,3.40
2022-09-11T12:12:07.991Z,48.13
2022-09-11T12:17:27.326Z,6.83
2022-09-11T12:22:39.060Z,20.57
2022-09-11T12:27:55.505Z,2.17
2022-09-11T12:32:55.099Z,3.47
2022-09-11T12:38:01.073Z,12.17
2022-09-11T12:43:16.913Z,1.80
2022-09-11T12:48:17.785Z,3.20
2022-09-11T12:53:23.580Z,10.33
2022-09-11T12:58:34.081Z,6.93
2022-09-11T13:03:33.015Z,2.30
2022-09-11T13:08:38.554Z,2.63
2022-09-11T13:13:46.914Z,1.90
2022-09-11T13:18:45.249Z,1.73
2022-09-11T13:23:45.921Z,2.00
2022-09-11T13:28:47.879Z,1.80
2022-09-11T13:33:50.540Z,2.00
2022-09-11T13:38:54.465Z,1.30
2022-09-11T13:43:58.311Z,2.17
2022-09-11T13:49:00.237Z,1.40
2022-09-11T13:54:05.939Z,1.40
2022-09-11T13:59:36.223Z,1.60
2022-09-11T14:04:41.857Z,1.50
2022-09-11T14:09:41.359Z,1.50
2022-09-11T14:14:39.682Z,1.30
2022-09-11T14:19:38.213Z,1.30
2022-09-11T14:24:38.799Z,1.60
2022-09-11T14:29:38.298Z,1.50
2022-09-11T14:34:36.392Z,1.43
2022-09-11T14:39:39.654Z,2.03
2022-09-11T14:44:41.281Z,1.13
2022-09-11T14:49:39.411Z,1.30
2022-09-11T14:54:37.504Z,1.10
2022-09-11T14:59:35.614Z,1.40
2022-09-11T15:04:35.333Z,1.27
2022-09-11T15:09:33.463Z,1.60
2022-09-11T15:14:55.200Z,1.70
2022-09-11T15:19:52.779Z,1.30
2022-09-11T15:24:50.986Z,1.60
2022-09-11T15:29:49.140Z,1.30
2022-09-11T15:34:47.443Z,1.50
2022-09-11T15:39:47.109Z,1.10
2022-09-11T15:44:46.064Z,1.27
2022-09-11T15:49:47.816Z,1.70
2022-09-11T15:54:48.817Z,1.50
2022-09-11T15:59:46.984Z,1.43
2022-09-11T16:04:51.630Z,1.70
2022-09-11T16:09:53.021Z,1.33
2022-09-11T16:14:52.550Z,1.50
2022-09-11T16:19:51.467Z,2.57
2022-09-11T16:24:49.608Z,2.00
2022-09-11T16:30:25.932Z,1.73
2022-09-11T16:35:08.795Z,2.17
2022-09-11T16:40:09.208Z,1.53
2022-09-11T16:45:09.692Z,1.43
2022-09-11T16:50:08.641Z,1.80
2022-09-11T16:55:09.550Z,2.10
2022-09-11T17:00:10.792Z,1.50
2022-09-11T17:05:10.145Z,1.80
2022-09-11T17:10:09.357Z,2.03
2022-09-11T17:15:10.453Z,1.90
2022-09-11T17:20:11.689Z,2.40
2022-09-11T17:25:11.441Z,2.27
2022-09-11T17:30:12.759Z,2.47
2022-09-11T17:35:11.886Z,2.33
2022-09-11T17:40:10.921Z,2.27
2022-09-11T17:45:12.465Z,2.47
2022-09-11T17:50:13.952Z,2.80
2022-09-11T17:55:12.202Z,2.73
2022-09-11T18:00:13.432Z,4.67
2022-09-11T18:05:12.439Z,3.37
2022-09-11T18:10:10.949Z,3.80
2022-09-11T18:15:11.396Z,3.90
2022-09-11T18:20:10.012Z,3.73
2022-09-11T18:25:09.854Z,3.73
2022-09-11T18:30:09.913Z,4.73
2022-09-11T18:35:10.700Z,4.80
2022-09-11T18:40:09.614Z,5.43
2022-09-11T18:45:09.484Z,5.00
2022-09-11T18:50:09.884Z,6.03
2022-09-11T18:55:08.519Z,6.13
2022-09-11T19:00:07.723Z,6.90
2022-09-11T19:05:06.506Z,6.67
2022-09-11T19:10:07.196Z,8.33
2022-09-11T19:15:05.865Z,9.83
2022-09-11T19:20:05.974Z,8.33
2022-09-11T19:25:08.521Z,9.93
2022-09-11T19:30:08.739Z,6.20
2022-09-11T19:35:07.419Z,5.70
2022-09-11T19:40:07.986Z,5.03
2022-09-11T19:45:07.028Z,7.70
2022-09-11T19:50:05.898Z,4.77
2022-09-11T19:55:04.059Z,8.43
2022-09-11T20:00:05.074Z,5.53
2022-09-11T20:05:03.833Z,6.90
2022-09-11T20:10:01.960Z,10.60
2022-09-11T20:15:00.577Z,11.63
2022-09-11T20:20:01.734Z,11.73
2022-09-11T20:25:00.636Z,8.40
2022-09-11T20:30:00.487Z,10.43
2022-09-11T20:35:00.583Z,8.90
2022-09-11T20:40:00.433Z,7.43
2022-09-11T20:45:00.534Z,9.40
2022-09-11T20:50:00.745Z,6.23
2022-09-11T20:55:00.583Z,10.23
2022-09-11T21:00:00.614Z,11.70
2022-09-11T21:05:00.768Z,12.53
2022-09-11T21:09:59.055Z,8.70
2022-09-11T21:14:57.122Z,9.00
2022-09-11T21:19:57.531Z,10.40
2022-09-11T21:24:57.164Z,12.93
2022-09-11T21:29:55.568Z,8.20
2022-09-11T21:34:53.718Z,8.40
2022-09-11T21:39:51.868Z,7.83
2022-09-11T21:44:51.348Z,10.30
2022-09-11T21:49:49.522Z,9.93
2022-09-11T21:54:47.724Z,8.07
2022-09-11T21:59:45.828Z,7.83
2022-09-11T22:04:45.371Z,10.00
2022-09-11T22:09:43.547Z,8.13
2022-09-11T22:14:44.275Z,7.63
2022-09-11T22:19:45.803Z,9.33
2022-09-11T22:24:43.947Z,8.43
2022-09-11T22:29:46.844Z,13.00
2022-09-11T22:34:46.632Z,9.90
2022-09-11T22:39:44.917Z,15.33
2022-09-11T22:44:43.117Z,13.30
2022-09-11T22:49:41.280Z,15.20
2022-09-11T22:54:40.747Z,14.30
2022-09-11T22:59:38.834Z,12.23
2022-09-11T23:04:37.124Z,10.03
2022-09-11T23:09:35.223Z,12.97
2022-09-11T23:14:35.143Z,11.47
2022-09-11T23:19:34.324Z,9.23
2022-09-11T23:24:32.466Z,10.03
2022-09-11T23:29:30.742Z,8.33
2022-09-11T23:34:30.500Z,10.53
2022-09-11T23:39:28.630Z,12.13
2022-09-11T23:44:26.824Z,9.80
2022-09-11T23:49:24.977Z,9.43
2022-09-11T23:54:24.563Z,10.27
2022-09-11T23:59:22.782Z,12.40
